createdAt,value
2023-08-06T00:00:01.569Z,2.50
2023-08-06T00:02:28.853Z,2.75
2023-08-06T00:04:56.159Z,2.27
2023-08-06T00:07:23.230Z,2.55
2023-08-06T00:09:50.478Z,2.95
2023-08-06T00:12:17.428Z,2.38
2023-08-06T00:14:45.086Z,2.80
2023-08-06T00:17:12.280Z,2.60
2023-08-06T00:19:39.532Z,2.83
2023-08-06T00:22:06.628Z,2.88
2023-08-06T00:24:34.522Z,2.65
2023-08-06T00:27:01.521Z,2.47
2023-08-06T00:29:28.789Z,2.30
2023-08-06T00:31:56.043Z,2.65
2023-08-06T00:34:23.459Z,2.38
2023-08-06T00:36:50.352Z,2.20
2023-08-06T00:39:17.862Z,2.58
2023-08-06T00:41:44.777Z,2.97
2023-08-06T00:44:12.921Z,2.40
2023-08-06T00:46:40.839Z,2.83
2023-08-06T00:49:08.236Z,2.60
2023-08-06T00:51:35.859Z,2.60
2023-08-06T00:54:04.328Z,2.67
2023-08-06T00:56:31.639Z,2.80
2023-08-06T00:58:59.264Z,2.35
2023-08-06T01:01:26.620Z,2.20
2023-08-06T01:03:55.074Z,2.50
2023-08-06T01:06:39.193Z,2.70
2023-08-06T01:09:22.771Z,2.50
2023-08-06T01:12:05.252Z,2.70
2023-08-06T01:14:42.152Z,2.50
2023-08-06T01:17:09.708Z,2.60
2023-08-06T01:19:36.984Z,2.67
2023-08-06T01:22:04.643Z,2.53
2023-08-06T01:24:34.099Z,2.72
2023-08-06T01:27:16.037Z,2.42
2023-08-06T01:29:50.197Z,2.40
2023-08-06T01:32:17.608Z,2.20
2023-08-06T01:34:46.645Z,2.47
2023-08-06T01:37:13.909Z,2.35
2023-08-06T01:39:43.651Z,2.40
2023-08-06T01:42:10.784Z,2.03
2023-08-06T01:44:38.200Z,2.23
2023-08-06T01:47:05.650Z,2.10
2023-08-06T01:49:33.987Z,2.17
2023-08-06T01:52:02.029Z,2.50
2023-08-06T01:54:29.817Z,2.63
2023-08-06T01:56:56.800Z,2.63
2023-08-06T01:59:24.105Z,2.85
2023-08-06T02:01:51.489Z,2.45
2023-08-06T02:04:19.025Z,3.00
2023-08-06T02:06:45.973Z,2.75
2023-08-06T02:09:13.477Z,2.50
2023-08-06T02:11:40.481Z,2.60
2023-08-06T02:14:07.744Z,2.45
2023-08-06T02:16:34.703Z,2.70
2023-08-06T02:19:03.506Z,2.45
2023-08-06T02:21:30.427Z,2.73
2023-08-06T02:23:57.806Z,2.70
2023-08-06T02:26:24.769Z,2.70
2023-08-06T02:28:52.048Z,2.60
2023-08-06T02:31:19.044Z,2.50
2023-08-06T02:33:46.352Z,2.13
2023-08-06T02:36:13.561Z,2.90
2023-08-06T02:38:40.846Z,2.22
2023-08-06T02:41:07.789Z,2.38
2023-08-06T02:43:35.183Z,2.42
2023-08-06T02:46:02.791Z,2.30
2023-08-06T02:48:30.199Z,2.17
2023-08-06T02:51:01.004Z,2.45
2023-08-06T02:53:30.141Z,2.85
2023-08-06T02:56:00.176Z,2.70
2023-08-06T02:58:34.882Z,2.20
2023-08-06T03:01:13.914Z,2.30
2023-08-06T03:03:47.463Z,2.60
2023-08-06T03:06:21.012Z,2.42
2023-08-06T03:08:51.563Z,2.17
2023-08-06T03:11:18.516Z,2.00
2023-08-06T03:13:46.504Z,2.25
2023-08-06T03:16:13.804Z,2.30
2023-08-06T03:18:41.369Z,2.42
2023-08-06T03:21:10.098Z,2.40
2023-08-06T03:23:37.493Z,2.70
2023-08-06T03:26:06.046Z,2.72
2023-08-06T03:28:34.291Z,2.30
2023-08-06T03:31:03.242Z,2.42
2023-08-06T03:33:37.292Z,2.40
2023-08-06T03:36:07.952Z,2.20
2023-08-06T03:38:35.990Z,2.17
2023-08-06T03:41:06.272Z,2.60
2023-08-06T03:43:33.714Z,2.40
2023-08-06T03:46:01.615Z,2.28
2023-08-06T03:48:29.052Z,2.10
2023-08-06T03:50:56.037Z,2.60
2023-08-06T03:53:24.946Z,2.40
2023-08-06T03:55:52.337Z,2.35
2023-08-06T03:58:19.625Z,2.28
2023-08-06T04:00:46.606Z,2.33
2023-08-06T04:03:14.184Z,2.20
2023-08-06T04:05:41.830Z,2.60
2023-08-06T04:08:09.087Z,2.33
2023-08-06T04:10:36.007Z,2.40
2023-08-06T04:13:03.576Z,2.20
2023-08-06T04:15:30.918Z,2.63
2023-08-06T04:17:58.440Z,2.72
2023-08-06T04:20:25.870Z,2.22
2023-08-06T04:22:55.880Z,2.40
2023-08-06T04:25:23.073Z,2.57
2023-08-06T04:27:51.937Z,2.00
2023-08-06T04:30:19.369Z,2.20
2023-08-06T04:32:47.424Z,2.25
2023-08-06T04:35:14.822Z,2.88
2023-08-06T04:37:42.940Z,2.40
2023-08-06T04:40:11.463Z,2.10
2023-08-06T04:42:38.844Z,2.03
2023-08-06T04:45:06.374Z,2.15
2023-08-06T04:47:33.728Z,2.30
2023-08-06T04:50:01.006Z,2.60
2023-08-06T04:52:29.540Z,2.10
2023-08-06T04:54:56.499Z,2.10
2023-08-06T04:57:23.775Z,1.80
2023-08-06T04:59:50.944Z,2.00
2023-08-06T05:02:18.287Z,2.00
2023-08-06T05:04:45.416Z,2.08
2023-08-06T05:07:12.940Z,2.25
2023-08-06T05:09:40.840Z,2.20
2023-08-06T05:12:08.629Z,2.20
2023-08-06T05:14:35.581Z,2.40
2023-08-06T05:17:05.576Z,3.17
2023-08-06T05:19:32.853Z,1.98
2023-08-06T05:22:00.137Z,1.75
2023-08-06T05:24:27.149Z,2.13
2023-08-06T05:26:54.434Z,1.93
2023-08-06T05:29:21.384Z,2.10
2023-08-06T05:31:48.912Z,1.80
2023-08-06T05:34:15.892Z,1.83
2023-08-06T05:36:43.239Z,1.58
2023-08-06T05:39:10.201Z,1.40
2023-08-06T05:41:37.514Z,1.23
2023-08-06T05:44:04.760Z,1.40
2023-08-06T05:46:32.218Z,1.08
2023-08-06T05:48:59.162Z,0.90
2023-08-06T05:51:27.988Z,1.00
2023-08-06T05:53:55.243Z,1.00
2023-08-06T05:56:22.590Z,0.80
2023-08-06T05:58:50.107Z,1.10
2023-08-06T06:01:17.997Z,0.70
2023-08-06T06:03:44.953Z,0.73
2023-08-06T06:06:12.293Z,0.60
2023-08-06T06:08:39.265Z,0.70
2023-08-06T06:11:06.518Z,0.45
2023-08-06T06:13:33.477Z,0.70
2023-08-06T06:16:00.887Z,0.60
2023-08-06T06:18:27.917Z,0.50
2023-08-06T06:20:55.361Z,0.50
2023-08-06T06:23:22.314Z,0.70
2023-08-06T06:25:52.876Z,0.50
2023-08-06T06:28:20.257Z,0.50
2023-08-06T06:30:47.542Z,0.50
2023-08-06T06:33:14.535Z,0.70
2023-08-06T06:35:41.808Z,0.70
2023-08-06T06:38:08.807Z,0.50
2023-08-06T06:40:36.082Z,0.60
2023-08-06T06:43:03.392Z,0.60
2023-08-06T06:45:30.842Z,0.75
2023-08-06T06:47:57.834Z,0.60
2023-08-06T06:50:25.403Z,0.60
2023-08-06T06:52:52.350Z,0.73
2023-08-06T06:55:19.639Z,0.68
2023-08-06T06:57:46.618Z,1.05
2023-08-06T07:00:14.457Z,0.70
2023-08-06T07:02:41.901Z,0.95
2023-08-06T07:05:10.854Z,0.70
2023-08-06T07:07:38.867Z,0.80
2023-08-06T07:10:07.093Z,0.85
2023-08-06T07:12:34.085Z,0.93
2023-08-06T07:15:01.455Z,0.73
2023-08-06T07:17:28.427Z,0.80
2023-08-06T07:19:55.729Z,0.90
2023-08-06T07:22:22.692Z,0.90
2023-08-06T07:24:50.094Z,0.80
2023-08-06T07:27:17.009Z,1.00
2023-08-06T07:29:44.359Z,0.90
2023-08-06T07:32:11.379Z,0.80
2023-08-06T07:34:38.733Z,0.90
2023-08-06T07:37:06.106Z,0.70
2023-08-06T07:39:33.558Z,0.73
2023-08-06T07:42:00.867Z,0.60
2023-08-06T07:44:28.673Z,0.70
2023-08-06T07:46:55.697Z,0.63
2023-08-06T07:49:23.299Z,0.70
2023-08-06T07:51:50.548Z,0.80
2023-08-06T07:54:17.857Z,1.00
2023-08-06T07:56:44.816Z,0.73
2023-08-06T07:59:12.097Z,0.70
2023-08-06T08:01:39.218Z,0.70
2023-08-06T08:04:06.537Z,0.60
2023-08-06T08:06:34.905Z,0.80
2023-08-06T08:09:02.185Z,0.70
2023-08-06T08:11:29.246Z,0.50
2023-08-06T08:13:56.554Z,0.57
2023-08-06T08:16:23.585Z,0.70
2023-08-06T08:18:50.957Z,0.60
2023-08-06T08:21:17.937Z,0.40
2023-08-06T08:23:45.286Z,0.60
2023-08-06T08:26:12.222Z,0.60
2023-08-06T08:28:39.647Z,0.60
2023-08-06T08:31:10.445Z,0.50
2023-08-06T08:33:40.546Z,0.60
2023-08-06T08:36:07.572Z,0.50
2023-08-06T08:38:34.825Z,0.60
2023-08-06T08:41:01.816Z,0.60
2023-08-06T08:43:30.715Z,0.50
2023-08-06T08:46:01.428Z,0.73
2023-08-06T08:48:29.117Z,0.50
2023-08-06T08:50:59.340Z,0.50
2023-08-06T08:53:28.125Z,0.50
2023-08-06T08:55:56.535Z,0.40
2023-08-06T08:58:23.865Z,0.40
2023-08-06T09:00:51.257Z,0.50
2023-08-06T09:03:19.042Z,0.50
2023-08-06T09:05:53.088Z,0.60
2023-08-06T09:08:25.642Z,0.40
2023-08-06T09:10:53.778Z,0.50
2023-08-06T09:13:22.460Z,0.40
2023-08-06T09:15:51.323Z,0.40
2023-08-06T09:18:28.180Z,0.40
2023-08-06T09:20:55.911Z,0.50
2023-08-06T09:23:30.808Z,0.30
2023-08-06T09:25:58.909Z,0.32
2023-08-06T09:28:38.495Z,0.30
2023-08-06T09:31:05.454Z,0.50
2023-08-06T09:33:32.734Z,0.40
2023-08-06T09:36:09.105Z,0.32
2023-08-06T09:38:41.318Z,0.40
2023-08-06T09:41:09.240Z,0.40
2023-08-06T09:43:45.402Z,0.50
2023-08-06T09:46:18.075Z,0.47
2023-08-06T09:48:47.700Z,0.40
2023-08-06T09:51:15.064Z,0.45
2023-08-06T09:53:43.500Z,0.30
2023-08-06T09:56:12.478Z,0.50
2023-08-06T09:58:40.823Z,0.40
2023-08-06T10:01:08.081Z,0.50
2023-08-06T10:03:36.375Z,0.40
2023-08-06T10:06:08.185Z,0.40
2023-08-06T10:08:35.803Z,0.50
2023-08-06T10:11:05.410Z,0.50
2023-08-06T10:13:35.209Z,0.40
2023-08-06T10:16:06.556Z,0.40
2023-08-06T10:18:36.580Z,0.40
2023-08-06T10:21:03.624Z,0.40
2023-08-06T10:23:36.007Z,0.50
2023-08-06T10:26:03.119Z,0.35
2023-08-06T10:28:38.796Z,0.40
2023-08-06T10:31:06.357Z,0.40
2023-08-06T10:33:46.935Z,0.40
2023-08-06T10:36:15.261Z,0.50
2023-08-06T10:38:50.482Z,0.40
2023-08-06T10:41:28.504Z,0.40
2023-08-06T10:44:11.498Z,0.40
2023-08-06T10:46:39.250Z,0.40
2023-08-06T10:49:08.591Z,0.40
2023-08-06T10:51:36.542Z,0.57
2023-08-06T10:54:04.087Z,0.40
2023-08-06T10:56:32.316Z,0.40
2023-08-06T10:59:00.166Z,0.40
2023-08-06T11:01:30.779Z,0.50
2023-08-06T11:04:04.091Z,0.50
2023-08-06T11:06:31.088Z,0.50
2023-08-06T11:08:58.346Z,0.40
2023-08-06T11:11:25.557Z,0.38
2023-08-06T11:13:53.756Z,0.40
2023-08-06T11:16:25.998Z,0.50
2023-08-06T11:18:57.880Z,0.50
2023-08-06T11:21:26.090Z,0.50
2023-08-06T11:23:54.354Z,0.40
2023-08-06T11:26:22.199Z,0.33
2023-08-06T11:28:50.420Z,0.50
2023-08-06T11:31:24.131Z,0.40
2023-08-06T11:33:56.126Z,0.40
2023-08-06T11:36:35.765Z,0.40
2023-08-06T11:39:06.455Z,0.40
2023-08-06T11:41:34.206Z,0.50
2023-08-06T11:44:01.768Z,0.40
2023-08-06T11:46:28.799Z,0.50
2023-08-06T11:48:57.318Z,0.50
2023-08-06T11:51:28.210Z,0.50
2023-08-06T11:53:58.117Z,0.40
2023-08-06T11:56:29.011Z,0.45
2023-08-06T11:58:56.754Z,0.50
2023-08-06T12:01:23.851Z,0.50
2023-08-06T12:03:51.267Z,0.40
2023-08-06T12:06:18.245Z,0.50
2023-08-06T12:08:45.569Z,0.52
2023-08-06T12:11:12.665Z,0.57
2023-08-06T12:13:39.931Z,0.70
2023-08-06T12:16:06.862Z,0.50
2023-08-06T12:18:34.179Z,0.50
2023-08-06T12:21:01.244Z,0.60
2023-08-06T12:23:28.627Z,0.40
2023-08-06T12:25:55.591Z,0.70
2023-08-06T12:28:24.173Z,0.70
2023-08-06T12:30:51.971Z,0.70
2023-08-06T12:33:20.136Z,0.50
2023-08-06T12:35:47.428Z,0.50
2023-08-06T12:38:14.957Z,0.50
2023-08-06T12:40:43.944Z,0.50
2023-08-06T12:43:11.741Z,0.47
2023-08-06T12:45:38.724Z,0.60
2023-08-06T12:48:06.105Z,0.50
2023-08-06T12:50:34.415Z,0.88
2023-08-06T12:53:02.055Z,0.50
2023-08-06T12:55:31.877Z,0.50
2023-08-06T12:58:00.592Z,0.70
2023-08-06T13:00:28.189Z,0.70
2023-08-06T13:02:55.811Z,0.60
2023-08-06T13:05:23.372Z,0.60
2023-08-06T13:07:50.644Z,0.60
2023-08-06T13:10:17.637Z,0.65
2023-08-06T13:12:45.428Z,0.68
2023-08-06T13:15:12.480Z,0.75
2023-08-06T13:17:39.735Z,0.70
2023-08-06T13:20:07.798Z,0.70
2023-08-06T13:22:35.053Z,0.70
2023-08-06T13:25:02.022Z,0.70
2023-08-06T13:27:29.410Z,0.70
2023-08-06T13:29:56.425Z,0.67
2023-08-06T13:32:23.795Z,0.75
2023-08-06T13:34:51.475Z,0.63
2023-08-06T13:37:19.004Z,0.70
2023-08-06T13:39:45.928Z,0.70
2023-08-06T13:42:13.534Z,0.60
2023-08-06T13:44:40.531Z,0.50
2023-08-06T13:47:07.784Z,0.70
2023-08-06T13:49:34.764Z,0.50
2023-08-06T13:52:15.808Z,0.50
2023-08-06T13:54:48.249Z,0.60
2023-08-06T13:57:15.515Z,0.50
2023-08-06T13:59:42.537Z,0.50
2023-08-06T14:02:09.933Z,0.60
2023-08-06T14:04:38.586Z,0.50
2023-08-06T14:07:05.811Z,0.50
2023-08-06T14:09:32.852Z,0.60
2023-08-06T14:12:00.364Z,0.60
2023-08-06T14:14:28.418Z,0.60
2023-08-06T14:16:56.374Z,0.50
2023-08-06T14:19:26.607Z,0.50
2023-08-06T14:21:53.950Z,0.60
2023-08-06T14:24:20.902Z,0.63
2023-08-06T14:26:48.170Z,0.63
2023-08-06T14:29:15.648Z,0.60
2023-08-06T14:31:42.963Z,0.40
2023-08-06T14:34:09.922Z,0.50
2023-08-06T14:36:37.287Z,0.60
2023-08-06T14:39:04.404Z,0.50
2023-08-06T14:41:31.648Z,0.50
2023-08-06T14:43:58.594Z,0.50
2023-08-06T14:46:26.668Z,0.50
2023-08-06T14:48:53.645Z,0.50
2023-08-06T14:51:21.973Z,0.60
2023-08-06T14:53:49.243Z,0.60
2023-08-06T14:56:17.184Z,0.40
2023-08-06T14:58:44.325Z,0.70
2023-08-06T15:01:11.735Z,0.60
2023-08-06T15:03:38.721Z,0.63
2023-08-06T15:06:06.073Z,0.60
2023-08-06T15:08:33.419Z,0.67
2023-08-06T15:11:04.228Z,0.60
2023-08-06T15:13:31.629Z,0.60
2023-08-06T15:15:58.921Z,0.70
2023-08-06T15:18:25.885Z,0.60
2023-08-06T15:20:53.222Z,0.50
2023-08-06T15:23:20.961Z,0.70
2023-08-06T15:25:48.352Z,0.75
2023-08-06T15:28:15.642Z,0.70
2023-08-06T15:30:50.607Z,0.70
2023-08-06T15:33:19.669Z,0.60
2023-08-06T15:35:47.268Z,0.60
2023-08-06T15:38:14.532Z,0.88
2023-08-06T15:40:41.940Z,0.70
2023-08-06T15:43:08.854Z,0.80
2023-08-06T15:45:36.087Z,0.70
2023-08-06T15:48:03.135Z,0.65
2023-08-06T15:50:30.432Z,0.70
2023-08-06T15:52:57.441Z,0.60
2023-08-06T15:55:25.474Z,0.70
2023-08-06T15:57:52.383Z,1.10
2023-08-06T16:00:19.781Z,0.88
2023-08-06T16:02:47.328Z,0.90
2023-08-06T16:05:14.980Z,0.90
2023-08-06T16:07:42.013Z,0.90
2023-08-06T16:10:09.754Z,0.80
2023-08-06T16:12:36.766Z,1.00
2023-08-06T16:15:04.316Z,0.90
2023-08-06T16:17:31.301Z,0.85
2023-08-06T16:19:58.611Z,0.90
2023-08-06T16:22:26.581Z,0.80
2023-08-06T16:24:53.933Z,0.80
2023-08-06T16:27:20.846Z,0.88
2023-08-06T16:29:49.416Z,1.00
2023-08-06T16:32:16.618Z,1.00
2023-08-06T16:34:43.876Z,0.77
2023-08-06T16:37:11.408Z,0.80
2023-08-06T16:39:39.076Z,0.90
2023-08-06T16:42:07.810Z,0.90
2023-08-06T16:44:35.172Z,0.90
2023-08-06T16:47:02.820Z,0.80
2023-08-06T16:49:30.206Z,0.98
2023-08-06T16:51:57.129Z,0.80
2023-08-06T16:54:24.355Z,0.80
2023-08-06T16:56:51.325Z,1.02
2023-08-06T16:59:19.058Z,0.90
2023-08-06T17:01:46.007Z,0.88
2023-08-06T17:04:13.577Z,1.00
2023-08-06T17:06:40.507Z,0.93
2023-08-06T17:09:07.748Z,0.90
2023-08-06T17:11:34.751Z,0.70
2023-08-06T17:14:02.084Z,0.80
2023-08-06T17:16:29.695Z,0.90
2023-08-06T17:18:57.074Z,1.23
2023-08-06T17:21:23.995Z,0.93
2023-08-06T17:23:51.530Z,0.93
2023-08-06T17:26:18.530Z,1.00
2023-08-06T17:28:46.059Z,1.20
2023-08-06T17:31:14.339Z,0.90
2023-08-06T17:33:41.627Z,1.10
2023-08-06T17:36:08.562Z,1.10
2023-08-06T17:38:35.827Z,1.00
2023-08-06T17:41:05.921Z,1.10
2023-08-06T17:43:33.394Z,1.00
2023-08-06T17:46:00.318Z,1.20
2023-08-06T17:48:27.650Z,0.90
2023-08-06T17:50:54.618Z,1.10
2023-08-06T17:53:22.069Z,1.00
2023-08-06T17:55:49.984Z,1.00
2023-08-06T17:58:17.237Z,1.20
2023-08-06T18:00:49.774Z,1.10
2023-08-06T18:03:18.665Z,1.23
2023-08-06T18:05:46.275Z,1.70
2023-08-06T18:08:13.581Z,1.42
2023-08-06T18:10:40.671Z,1.30
2023-08-06T18:13:07.881Z,1.10
2023-08-06T18:15:35.045Z,1.35
2023-08-06T18:18:02.412Z,1.00
2023-08-06T18:20:31.143Z,0.80
2023-08-06T18:22:58.394Z,0.98
2023-08-06T18:25:25.462Z,1.40
2023-08-06T18:27:52.742Z,1.20
2023-08-06T18:30:19.764Z,1.20
2023-08-06T18:32:47.681Z,0.90
2023-08-06T18:35:14.849Z,1.20
2023-08-06T18:37:42.439Z,1.10
2023-08-06T18:40:10.450Z,1.30
2023-08-06T18:42:39.321Z,1.30
2023-08-06T18:45:07.857Z,1.38
2023-08-06T18:47:35.549Z,1.70
2023-08-06T18:50:02.716Z,1.27
2023-08-06T18:52:29.969Z,1.60
2023-08-06T18:54:57.357Z,1.60
2023-08-06T18:57:24.720Z,1.85
2023-08-06T18:59:53.280Z,1.40
2023-08-06T19:02:20.648Z,1.40
2023-08-06T19:04:49.631Z,1.20
2023-08-06T19:07:16.908Z,0.90
2023-08-06T19:09:47.288Z,1.17
2023-08-06T19:12:21.824Z,1.20
2023-08-06T19:14:49.415Z,1.07
2023-08-06T19:17:16.769Z,1.08
2023-08-06T19:19:45.075Z,1.05
2023-08-06T19:22:12.870Z,1.00
2023-08-06T19:24:40.031Z,1.10
2023-08-06T19:27:07.871Z,0.90
2023-08-06T19:29:35.055Z,1.10
2023-08-06T19:32:06.562Z,1.23
2023-08-06T19:34:35.568Z,1.20
2023-08-06T19:37:03.329Z,1.20
2023-08-06T19:39:30.287Z,1.30
2023-08-06T19:41:57.782Z,1.23
2023-08-06T19:44:25.285Z,2.83
2023-08-06T19:46:52.608Z,2.30
2023-08-06T19:49:19.688Z,3.00
2023-08-06T19:51:47.011Z,2.23
2023-08-06T19:54:14.107Z,1.98
2023-08-06T19:56:41.718Z,1.60
2023-08-06T19:59:08.681Z,1.30
2023-08-06T20:01:36.048Z,1.17
2023-08-06T20:04:03.077Z,1.20
2023-08-06T20:06:33.237Z,1.20
2023-08-06T20:09:00.236Z,1.15
2023-08-06T20:11:27.609Z,1.10
2023-08-06T20:13:54.758Z,1.00
2023-08-06T20:16:22.043Z,0.90
2023-08-06T20:18:49.104Z,1.00
2023-08-06T20:21:17.558Z,1.08
2023-08-06T20:23:44.541Z,1.00
2023-08-06T20:26:11.878Z,1.02
2023-08-06T20:28:38.876Z,1.23
2023-08-06T20:31:06.185Z,1.17
2023-08-06T20:33:34.364Z,1.40
2023-08-06T20:36:01.750Z,1.17
2023-08-06T20:38:28.803Z,1.40
2023-08-06T20:40:56.955Z,1.07
2023-08-06T20:43:27.351Z,1.13
2023-08-06T20:46:05.363Z,1.02
2023-08-06T20:48:32.442Z,1.10
2023-08-06T20:50:59.796Z,1.00
2023-08-06T20:53:27.128Z,1.10
2023-08-06T20:56:05.437Z,1.10
2023-08-06T20:58:33.577Z,1.15
2023-08-06T21:01:02.385Z,1.02
2023-08-06T21:03:31.895Z,1.20
2023-08-06T21:06:03.184Z,1.00
2023-08-06T21:08:31.705Z,1.55
2023-08-06T21:11:00.504Z,1.30
2023-08-06T21:13:29.054Z,1.50
2023-08-06T21:16:04.096Z,1.60
2023-08-06T21:18:33.718Z,1.47
2023-08-06T21:21:02.361Z,1.73
2023-08-06T21:23:31.186Z,1.40
2023-08-06T21:26:00.412Z,1.35
2023-08-06T21:28:28.825Z,1.30
2023-08-06T21:30:57.838Z,1.47
2023-08-06T21:33:26.512Z,1.80
2023-08-06T21:35:56.839Z,1.60
2023-08-06T21:38:23.752Z,2.00
2023-08-06T21:40:51.007Z,1.30
2023-08-06T21:43:17.916Z,1.70
2023-08-06T21:45:45.162Z,1.20
2023-08-06T21:48:12.092Z,1.30
2023-08-06T21:50:39.342Z,1.40
2023-08-06T21:53:06.239Z,1.20
2023-08-06T21:55:33.697Z,1.30
2023-08-06T21:58:00.645Z,1.25
2023-08-06T22:00:27.992Z,1.10
2023-08-06T22:02:55.067Z,1.08
2023-08-06T22:05:22.580Z,1.17
2023-08-06T22:07:49.669Z,1.10
2023-08-06T22:10:17.075Z,1.00
2023-08-06T22:12:44.078Z,1.20
2023-08-06T22:15:11.576Z,0.95
2023-08-06T22:17:38.535Z,1.23
2023-08-06T22:20:06.650Z,1.10
2023-08-06T22:22:34.081Z,1.00
2023-08-06T22:25:01.360Z,1.70
2023-08-06T22:27:28.322Z,1.40
2023-08-06T22:29:55.602Z,1.33
2023-08-06T22:32:22.515Z,1.27
2023-08-06T22:34:49.792Z,1.30
2023-08-06T22:37:16.768Z,1.30
2023-08-06T22:39:44.188Z,1.60
2023-08-06T22:42:11.428Z,1.30
2023-08-06T22:44:38.652Z,1.20
2023-08-06T22:47:06.138Z,1.40
2023-08-06T22:49:33.791Z,1.40
2023-08-06T22:52:00.837Z,1.40
2023-08-06T22:54:28.130Z,1.20
2023-08-06T22:56:55.160Z,1.43
2023-08-06T22:59:23.049Z,1.10
2023-08-06T23:01:49.987Z,1.50
2023-08-06T23:04:17.419Z,1.45
2023-08-06T23:06:44.419Z,1.30
2023-08-06T23:09:11.810Z,1.27
2023-08-06T23:11:38.743Z,1.45
2023-08-06T23:14:05.954Z,1.50
2023-08-06T23:16:33.007Z,1.33
2023-08-06T23:19:00.290Z,1.35
2023-08-06T23:21:27.355Z,1.97
2023-08-06T23:23:54.614Z,2.03
2023-08-06T23:26:21.569Z,1.60
2023-08-06T23:28:50.089Z,1.45
2023-08-06T23:31:17.044Z,1.60
2023-08-06T23:33:44.391Z,1.30
2023-08-06T23:36:11.383Z,1.20
2023-08-06T23:38:39.092Z,1.40
2023-08-06T23:41:06.291Z,1.00
2023-08-06T23:43:33.991Z,1.10
2023-08-06T23:46:00.931Z,0.80
2023-08-06T23:48:28.780Z,0.88
2023-08-06T23:50:55.841Z,1.10
2023-08-06T23:53:23.133Z,1.00
2023-08-06T23:55:51.346Z,1.10
2023-08-06T23:58:18.644Z,1.00
